Time;durP1;ratioP1;P1;durP2;ratioP2;P2;SDS_P1;SDS_P2;PMS_P1;PMS_P2;Temp;Humidity;BMP_temperature;BMP_pressure;BME280_temperature;BME280_humidity;BME280_pressure;Samples;Min_cycle;Max_cycle;Signal;HPM_P1;HPM_P2
2024/03/30 00:00:51;;;;;;;5.73;2.63;;;8.40;99.90;;;9.22;100.00;96184.00;4991576;28;20475;-76
2024/03/30 00:03:18;;;;;;;7.80;3.67;;;8.40;99.90;;;9.24;100.00;96190.56;4997560;28;20499;-76
2024/03/30 00:05:46;;;;;;;6.33;3.50;;;8.50;99.90;;;9.19;100.00;96192.28;4994778;28;20908;-76
2024/03/30 00:08:13;;;;;;;7.73;3.10;;;8.40;99.90;;;9.21;100.00;96183.19;5012967;28;20469;-76
2024/03/30 00:10:42;;;;;;;5.17;3.30;;;8.40;99.90;;;9.25;100.00;96178.34;4996282;28;20474;-76
2024/03/30 00:13:10;;;;;;;5.47;3.73;;;8.50;99.90;;;9.26;100.00;96178.13;5014342;28;20493;-76
2024/03/30 00:15:38;;;;;;;6.30;3.90;;;8.50;99.90;;;9.29;100.00;96176.88;4998704;28;20454;-76
2024/03/30 00:18:05;;;;;;;7.17;3.87;;;8.50;99.90;;;9.30;100.00;96174.03;5002047;28;20463;-75
2024/03/30 00:20:32;;;;;;;10.13;7.50;;;8.50;99.90;;;9.28;100.00;96172.66;5004709;28;20858;-75
2024/03/30 00:22:59;;;;;;;5.87;3.70;;;8.50;99.90;;;9.33;100.00;96178.00;5005476;28;20474;-75
2024/03/30 00:25:27;;;;;;;5.30;3.00;;;8.50;99.90;;;9.28;100.00;96170.84;5004375;28;20967;-76
2024/03/30 00:27:53;;;;;;;7.20;3.50;;;8.50;99.90;;;9.29;100.00;96174.25;5003127;28;20474;-76
2024/03/30 00:30:23;;;;;;;14.10;4.03;;;8.50;99.90;;;9.27;100.00;96164.03;5000451;28;20974;-76
2024/03/30 00:32:50;;;;;;;5.20;3.87;;;8.50;99.90;;;9.29;100.00;96172.44;5004686;28;20532;-76
2024/03/30 00:35:17;;;;;;;8.97;3.77;;;8.50;99.90;;;9.29;100.00;96169.03;5001374;28;20492;-76
2024/03/30 00:37:44;;;;;;;6.30;4.03;;;8.50;99.90;;;9.30;100.00;96174.03;5004792;28;20478;-75
2024/03/30 00:40:11;;;;;;;8.07;4.20;;;8.50;99.90;;;9.31;100.00;96170.41;5003546;28;21021;-76
2024/03/30 00:42:38;;;;;;;6.90;3.70;;;8.60;99.90;;;9.32;100.00;96173.81;5005993;28;20473;-75
2024/03/30 00:45:06;;;;;;;6.43;3.80;;;8.60;99.90;;;9.32;100.00;96165.97;4999880;28;20588;-76
2024/03/30 00:47:34;;;;;;;6.40;4.00;;;8.50;99.90;;;9.34;100.00;96174.38;5004884;28;20466;-76
2024/03/30 00:50:01;;;;;;;6.27;3.80;;;8.50;99.90;;;9.34;100.00;96164.72;5016590;28;20469;-76
2024/03/30 00:52:28;;;;;;;8.37;4.10;;;8.50;99.90;;;9.32;100.00;96166.78;5005740;28;20485;-76
2024/03/30 00:54:55;;;;;;;8.83;3.60;;;8.50;99.90;;;9.33;100.00;96157.16;5001020;28;20454;-76
2024/03/30 00:57:22;;;;;;;7.00;3.97;;;8.60;99.90;;;9.36;100.00;96159.31;5001298;28;20468;-76
2024/03/30 00:59:50;;;;;;;7.67;4.73;;;8.60;99.90;;;9.36;100.00;96157.50;5003344;28;20478;-76
2024/03/30 01:02:16;;;;;;;5.80;3.40;;;8.50;99.90;;;9.35;100.00;96161.13;5013824;28;21032;-76
2024/03/30 01:04:45;;;;;;;4.87;3.10;;;8.50;99.90;;;9.32;100.00;96153.75;4999254;28;20533;-76
2024/03/30 01:07:12;;;;;;;9.07;3.80;;;8.50;99.90;;;9.35;100.00;96153.28;5004853;28;20475;-76
2024/03/30 01:09:39;;;;;;;4.43;3.47;;;8.50;99.90;;;9.39;100.00;96154.44;4999387;28;20529;-76
2024/03/30 01:12:07;;;;;;;4.93;3.73;;;8.60;99.90;;;9.33;100.00;96157.94;4998348;28;20984;-75
2024/03/30 01:14:39;;;;;;;5.00;3.47;;;8.50;99.90;;;9.32;100.00;96158.97;4998262;28;20454;-76
2024/03/30 01:17:07;;;;;;;10.23;4.17;;;8.60;99.90;;;9.35;100.00;96153.28;5014843;28;20482;-75
2024/03/30 01:19:35;;;;;;;11.43;4.43;;;8.60;99.90;;;9.38;100.00;96155.44;5003796;28;20851;-76
2024/03/30 01:22:04;;;;;;;6.60;3.80;;;8.60;99.90;;;9.34;100.00;96154.31;5000676;28;20834;-76
2024/03/30 01:24:32;;;;;;;5.50;3.83;;;8.60;99.90;;;9.35;100.00;96155.91;5005526;28;20491;-76
2024/03/30 01:27:03;;;;;;;5.67;3.77;;;8.60;99.90;;;9.35;100.00;96155.91;5001749;28;20482;-76
2024/03/30 01:29:32;;;;;;;10.17;4.40;;;8.60;99.90;;;9.39;100.00;96153.63;5018719;28;20474;-76
2024/03/30 01:31:59;;;;;;;6.80;4.47;;;8.60;99.90;;;9.39;100.00;96151.81;5004221;28;20479;-75
2024/03/30 01:34:28;;;;;;;6.63;4.30;;;8.60;99.90;;;9.42;100.00;96153.19;4999270;28;20834;-76
2024/03/30 01:36:54;;;;;;;9.30;4.50;;;8.60;99.90;;;9.43;100.00;96154.78;5002605;28;20460;-76
2024/03/30 01:39:23;;;;;;;13.57;4.70;;;8.70;99.90;;;9.43;100.00;96150.34;5001694;28;21002;-76
2024/03/30 01:41:49;;;;;;;11.27;4.60;;;8.70;99.90;;;9.46;100.00;96152.50;5003653;28;20969;-76
2024/03/30 01:44:17;;;;;;;8.93;4.10;;;8.70;99.90;;;9.48;100.00;96153.06;5016145;28;20514;-76
2024/03/30 01:46:44;;;;;;;10.90;5.50;;;8.70;99.90;;;9.49;100.00;96143.44;5001227;28;20486;-76
2024/03/30 01:49:13;;;;;;;9.40;5.50;;;8.70;99.90;;;9.50;100.00;96143.22;5002532;28;20457;-75
2024/03/30 01:51:40;;;;;;;10.10;5.70;;;8.80;99.90;;;9.51;100.00;96142.16;5001412;28;20467;-76
2024/03/30 01:54:08;;;;;;;11.50;7.00;;;8.80;99.90;;;9.52;100.00;96141.16;5003990;28;20839;-76
2024/03/30 01:56:37;;;;;;;8.70;4.43;;;8.80;99.90;;;9.56;100.00;96142.28;5004429;28;20469;-75
2024/03/30 01:59:05;;;;;;;12.03;6.13;;;8.80;99.90;;;9.58;100.00;96145.47;5017189;28;21004;-76
2024/03/30 02:01:32;;;;;;;10.87;5.87;;;8.80;99.90;;;9.58;100.00;96145.47;5000461;28;20831;-76
2024/03/30 02:04:00;;;;;;;12.43;5.97;;;8.80;99.90;;;9.59;100.00;96136.63;4999875;28;20546;-76
2024/03/30 02:06:29;;;;;;;10.97;6.23;;;8.80;99.90;;;9.61;100.00;96139.78;4997664;28;20485;-76
2024/03/30 02:09:00;;;;;;;13.27;7.73;;;8.80;99.90;;;9.60;100.00;96130.38;4999600;28;20478;-76
2024/03/30 02:11:27;;;;;;;15.47;7.37;;;8.80;99.90;;;9.63;100.00;96125.72;5002827;28;20472;-75
2024/03/30 02:13:56;;;;;;;12.63;7.70;;;8.80;99.90;;;9.65;100.00;96121.84;5002979;28;21057;-76
2024/03/30 02:16:24;;;;;;;16.40;7.50;;;8.80;99.90;;;9.65;100.00;96115.88;4999791;28;20997;-76
2024/03/30 02:18:52;;;;;;;14.57;7.30;;;8.80;99.90;;;9.66;100.00;96115.63;5002808;28;20899;-76
2024/03/30 02:21:18;;;;;;;17.13;7.67;;;8.80;99.90;;;9.66;100.00;96104.38;5002293;28;20482;-76
2024/03/30 02:23:47;;;;;;;14.77;8.20;;;8.80;99.90;;;9.62;100.00;96111.88;5003796;28;20496;-76
2024/03/30 02:26:13;;;;;;;18.90;8.47;;;8.80;99.90;;;9.64;100.00;96111.66;5002926;28;20470;-76
2024/03/30 02:28:43;;;;;;;11.80;6.73;;;8.80;99.90;;;9.64;100.00;96103.84;5000524;28;20484;-75
2024/03/30 02:31:09;;;;;;;10.70;6.07;;;8.80;99.90;;;9.66;100.00;96112.22;4999217;28;20468;-75
2024/03/30 02:33:37;;;;;;;16.40;6.33;;;8.80;99.90;;;9.64;100.00;96098.63;5004494;28;20486;-76
2024/03/30 02:36:05;;;;;;;13.60;6.60;;;8.80;99.90;;;9.67;100.00;96103.38;4999568;28;21043;-76
2024/03/30 02:38:32;;;;;;;13.33;6.07;;;8.80;99.90;;;9.68;100.00;96103.16;5014701;28;20481;-76
2024/03/30 02:41:00;;;;;;;17.87;8.40;;;8.80;99.90;;;9.63;100.00;96110.88;5000193;28;20863;-75
2024/03/30 02:43:28;;;;;;;20.10;8.10;;;8.80;99.90;;;9.61;100.00;96111.06;5000448;28;20506;-76
2024/03/30 02:45:54;;;;;;;18.33;7.97;;;8.80;99.90;;;9.63;100.00;96102.25;4999424;28;20506;-76
2024/03/30 02:48:21;;;;;;;16.77;7.70;;;8.90;99.90;;;9.63;100.00;96097.81;4998152;28;20470;-76
2024/03/30 02:50:48;;;;;;;17.43;8.30;;;8.90;99.90;;;9.63;100.00;96097.00;4996426;28;20480;-76
2024/03/30 02:53:15;;;;;;;22.60;8.53;;;8.90;99.90;;;9.56;100.00;96103.16;5013468;28;20482;-75
2024/03/30 02:55:42;;;;;;;15.10;7.03;;;8.90;99.90;;;9.58;100.00;96103.72;5003320;28;20474;-76
2024/03/30 02:58:11;;;;;;;17.70;8.40;;;8.80;99.90;;;9.57;100.00;96102.16;5002567;28;20526;-75
2024/03/30 03:00:37;;;;;;;19.97;8.40;;;8.80;99.90;;;9.57;100.00;96104.75;5000447;28;20468;-76
2024/03/30 03:03:05;;;;;;;18.97;8.87;;;8.80;99.90;;;9.59;100.00;96100.09;5001802;28;20462;-76
2024/03/30 03:05:31;;;;;;;18.57;8.37;;;8.90;99.90;;;9.61;100.00;96103.25;5001307;28;21021;-76
2024/03/30 03:07:59;;;;;;;16.90;7.50;;;8.90;99.90;;;9.59;100.00;96099.28;5015523;28;20475;-75
2024/03/30 03:10:25;;;;;;;19.40;7.97;;;8.90;99.90;;;9.61;100.00;96107.69;5003036;28;20537;-76
2024/03/30 03:12:53;;;;;;;21.90;8.63;;;8.90;99.90;;;9.61;100.00;96098.03;5001425;28;20832;-75
2024/03/30 03:15:20;;;;;;;15.70;7.70;;;8.80;99.90;;;9.61;100.00;96107.69;5002628;28;20840;-76
2024/03/30 03:17:48;;;;;;;19.77;8.23;;;8.80;99.90;;;9.61;100.00;96099.88;4995630;28;20866;-76
2024/03/30 03:20:15;;;;;;;18.83;6.80;;;8.80;99.90;;;9.57;100.00;96102.16;4999261;28;21065;-76
2024/03/30 03:22:42;;;;;;;17.17;7.63;;;8.90;99.90;;;9.61;100.00;96110.31;4998115;28;20460;-76
2024/03/30 03:25:09;;;;;;;14.80;7.67;;;8.90;99.90;;;9.61;100.00;96098.03;4997588;28;20724;-76
2024/03/30 03:27:36;;;;;;;19.53;7.60;;;8.90;99.90;;;9.63;100.00;96105.66;5001663;28;21054;-75
2024/03/30 03:30:04;;;;;;;19.07;7.90;;;8.80;99.90;;;9.63;100.00;96105.66;5000825;28;20528;-76
2024/03/30 03:32:32;;;;;;;14.10;7.00;;;8.80;99.90;;;9.61;100.00;96100.63;5015924;28;20468;-75
2024/03/30 03:34:59;;;;;;;14.57;7.20;;;8.90;99.90;;;9.66;100.00;96092.13;5001962;28;20473;-76
2024/03/30 03:37:26;;;;;;;17.13;7.33;;;8.90;99.90;;;9.67;100.00;96101.56;5001072;28;20483;-76
2024/03/30 03:39:52;;;;;;;18.13;6.33;;;8.90;99.90;;;9.67;100.00;96106.78;5004036;28;20478;-76
2024/03/30 03:42:20;;;;;;;12.03;6.67;;;8.90;99.90;;;9.61;100.00;96108.47;5005569;28;20487;-76
2024/03/30 03:44:47;;;;;;;15.00;6.07;;;8.80;99.90;;;9.61;100.00;96108.47;5003554;28;20510;-76
2024/03/30 03:47:14;;;;;;;11.20;5.30;;;8.80;99.90;;;9.49;100.00;96101.69;5019213;28;20554;-76
2024/03/30 03:49:42;;;;;;;13.30;5.20;;;8.70;99.90;;;9.53;100.00;96101.00;5005694;28;20468;-76
2024/03/30 03:52:09;;;;;;;12.13;6.30;;;8.70;99.90;;;9.50;100.00;96101.47;5004937;28;20886;-75
2024/03/30 03:54:36;;;;;;;14.20;6.17;;;8.70;99.90;;;9.46;100.00;96105.53;5006191;28;20479;-75
2024/03/30 03:57:04;;;;;;;14.60;6.10;;;8.60;99.90;;;9.47;100.00;96106.34;5007928;28;20544;-76
2024/03/30 03:59:30;;;;;;;20.03;6.00;;;8.70;99.90;;;9.46;100.00;96100.34;5005917;28;20469;-76
2024/03/30 04:01:58;;;;;;;12.83;5.57;;;8.70;99.90;;;9.41;100.00;96097.59;5001812;28;20459;-76
2024/03/30 04:04:25;;;;;;;11.10;6.60;;;8.60;99.90;;;9.39;100.00;96094.44;5003557;28;20478;-79
2024/03/30 04:06:53;;;;;;;15.10;6.40;;;8.60;99.90;;;9.34;100.00;96101.34;5006136;28;20484;-80
2024/03/30 04:09:20;;;;;;;13.57;5.63;;;8.50;99.90;;;9.33;100.00;96108.38;5014282;28;20756;-76
2024/03/30 04:11:47;;;;;;;14.10;6.90;;;8.50;99.90;;;9.37;100.00;96104.28;5002931;28;20515;-76
2024/03/30 04:14:14;;;;;;;13.27;6.30;;;8.50;99.90;;;9.41;100.00;96108.03;5005210;28;20874;-76
2024/03/30 04:16:41;;;;;;;12.67;5.50;;;8.60;99.90;;;9.45;100.00;96103.94;4998563;28;20499;-76
2024/03/30 04:19:07;;;;;;;11.30;5.57;;;8.60;99.90;;;9.45;100.00;96111.78;5001905;28;20482;-76
2024/03/30 04:21:35;;;;;;;8.90;5.10;;;8.60;99.90;;;9.44;100.00;96112.03;5000651;28;20462;-80
2024/03/30 04:24:03;;;;;;;26.87;8.50;;;8.60;99.90;;;9.44;100.00;96110.19;5000095;28;20475;-77
2024/03/30 04:26:31;;;;;;;22.73;10.27;;;8.60;99.90;;;9.47;100.00;96112.38;4996437;28;20510;-76
2024/03/30 04:28:57;;;;;;;10.60;5.40;;;8.60;99.90;;;9.48;100.00;96113.94;5002985;28;20462;-76
2024/03/30 04:31:25;;;;;;;26.10;5.27;;;8.60;99.90;;;9.55;100.00;96113.81;5002205;28;20482;-79
2024/03/30 04:33:52;;;;;;;17.47;5.93;;;8.70;99.90;;;9.51;100.00;96107.47;5020608;28;20473;-76
2024/03/30 04:36:18;;;;;;;15.70;5.80;;;8.70;99.90;;;9.53;100.00;96103.63;5001949;28;20960;-77
2024/03/30 04:38:46;;;;;;;12.87;5.70;;;8.70;99.90;;;9.52;100.00;96099.41;5002139;28;20487;-76
2024/03/30 04:41:15;;;;;;;36.77;5.00;;;8.70;99.90;;;9.50;100.00;96095.44;5006143;28;20487;-77
2024/03/30 04:43:42;;;;;;;16.90;5.80;;;8.70;99.90;;;9.54;100.00;96102.56;5004937;28;20467;-77
2024/03/30 04:46:08;;;;;;;15.53;5.13;;;8.70;99.90;;;9.44;100.00;96099.75;5000405;28;20493;-77
2024/03/30 04:48:36;;;;;;;14.43;5.03;;;8.60;99.90;;;9.43;100.00;96100.78;5004884;28;20893;-77
2024/03/30 04:51:03;;;;;;;12.00;4.73;;;8.60;99.90;;;9.38;100.00;96092.84;5003351;28;20477;-77
2024/03/30 04:53:32;;;;;;;12.00;5.43;;;8.60;99.90;;;9.40;100.00;96101.25;5003284;28;20526;-77
2024/03/30 04:56:02;;;;;;;11.93;4.87;;;8.60;99.90;;;9.41;100.00;96091.59;5003093;28;20459;-77
2024/03/30 04:58:33;;;;;;;12.00;5.70;;;8.60;99.90;;;9.41;100.00;96089.78;5002619;28;20483;-77
2024/03/30 05:01:05;;;;;;;16.10;5.07;;;8.60;99.90;;;9.46;100.00;96100.34;4997721;28;20728;-77
2024/03/30 05:03:33;;;;;;;29.70;4.90;;;8.60;99.90;;;9.45;100.00;96096.13;5016445;28;20648;-77
2024/03/30 05:06:01;;;;;;;13.30;5.20;;;8.60;99.90;;;9.44;100.00;96098.97;5016652;28;20679;-77
2024/03/30 05:08:29;;;;;;;12.27;5.37;;;8.60;99.90;;;9.44;100.00;96091.16;5016912;28;20479;-77
2024/03/30 05:10:56;;;;;;;18.27;5.83;;;8.60;99.90;;;9.44;100.00;96089.31;5004352;28;20489;-75
2024/03/30 05:13:24;;;;;;;15.30;5.13;;;8.60;99.90;;;9.42;100.00;96098.41;5001853;28;20840;-76
2024/03/30 05:15:52;;;;;;;14.30;5.77;;;8.60;99.90;;;9.44;100.00;96099.75;5016533;28;21040;-76
2024/03/30 05:18:22;;;;;;;9.70;5.20;;;8.60;99.90;;;9.45;100.00;96098.72;5002278;28;20995;-76
2024/03/30 05:20:57;;;;;;;16.43;4.40;;;8.60;99.90;;;9.45;100.00;96093.50;5003658;28;20811;-76
2024/03/30 05:23:29;;;;;;;11.43;5.23;;;8.60;99.90;;;9.47;100.00;96088.88;4996909;28;20489;-77
2024/03/30 05:25:58;;;;;;;9.00;4.70;;;8.70;99.90;;;9.43;100.00;96082.53;4997519;28;21017;-76
2024/03/30 05:28:27;;;;;;;14.90;4.93;;;8.70;99.90;;;9.44;100.00;96071.06;5013992;28;20475;-83
2024/03/30 05:30:56;;;;;;;12.80;5.10;;;8.60;99.90;;;9.48;100.00;96076.59;5000548;28;20980;-76
2024/03/30 05:33:26;;;;;;;9.43;5.20;;;8.60;99.90;;;9.46;100.00;96068.22;4996358;28;20851;-76
2024/03/30 05:35:54;;;;;;;14.55;6.20;;;8.60;99.90;;;9.40;100.00;96069.94;4994240;28;20461;-76
2024/03/30 05:38:23;;;;;;;13.30;5.40;;;8.60;99.90;;;9.47;100.00;96075.84;5018329;28;20220;-76
2024/03/30 05:40:51;;;;;;;27.30;6.33;;;8.60;99.90;;;9.45;100.00;96087.50;5000708;28;20596;-76
2024/03/30 05:43:18;;;;;;;14.80;5.20;;;8.70;99.90;;;9.42;100.00;96088.75;5001459;28;20466;-76
2024/03/30 05:45:48;;;;;;;24.13;5.83;;;8.70;99.90;;;9.42;100.00;96083.53;5004121;28;20498;-76
2024/03/30 05:48:17;;;;;;;16.10;5.67;;;8.70;99.90;;;9.37;100.00;96080.81;5016860;28;20471;-76
2024/03/30 05:50:44;;;;;;;16.20;6.10;;;8.60;99.90;;;9.31;100.00;96071.28;5000748;28;20471;-76
2024/03/30 05:53:11;;;;;;;14.00;5.57;;;8.50;99.90;;;9.37;100.00;96080.03;5016466;28;20469;-76
2024/03/30 05:55:37;;;;;;;19.10;5.10;;;8.50;99.90;;;9.34;100.00;96081.28;5004774;28;20470;-76
2024/03/30 05:58:09;;;;;;;15.27;5.17;;;8.50;99.90;;;9.32;100.00;96072.88;5004627;28;20463;-76
2024/03/30 06:00:36;;;;;;;14.30;4.70;;;8.50;99.90;;;9.36;100.00;96066.19;5004766;28;20458;-76
2024/03/30 06:03:06;;;;;;;17.00;6.00;;;8.50;99.90;;;9.38;100.00;96069.38;5002213;28;20460;-76
2024/03/30 06:05:33;;;;;;;16.10;5.60;;;8.60;99.90;;;9.37;100.00;96078.19;5000039;28;20506;-76
2024/03/30 06:08:01;;;;;;;19.53;5.80;;;8.60;99.90;;;9.29;100.00;96078.56;5005168;28;20460;-76
2024/03/30 06:10:28;;;;;;;12.70;5.60;;;8.60;99.90;;;9.35;100.00;96071.63;4999801;28;20461;-76
2024/03/30 06:12:55;;;;;;;14.07;5.90;;;8.60;99.90;;;9.39;100.00;96075.38;4998324;28;20510;-77
2024/03/30 06:15:22;;;;;;;13.17;5.97;;;8.70;99.90;;;9.31;100.00;96079.13;5003111;28;20475;-76
2024/03/30 06:17:49;;;;;;;19.90;5.70;;;8.50;99.90;;;9.23;100.00;96076.88;5015922;28;20931;-76
2024/03/30 06:20:16;;;;;;;10.13;4.83;;;8.50;99.90;;;9.25;100.00;96080.03;4997887;28;20478;-76
2024/03/30 06:22:45;;;;;;;12.90;4.30;;;8.60;99.90;;;9.19;100.00;96078.34;5002028;28;20465;-75
2024/03/30 06:25:13;;;;;;;10.73;5.27;;;8.60;99.90;;;9.25;100.00;96097.50;5017134;28;20514;-76
2024/03/30 06:27:39;;;;;;;11.43;4.50;;;8.60;99.90;;;9.15;100.00;96102.47;5004217;28;20460;-76
2024/03/30 06:30:08;;;;;;;17.93;5.73;;;8.50;99.90;;;9.14;100.00;96086.03;5004313;28;20463;-75
2024/03/30 06:32:35;;;;;;;8.60;4.93;;;8.50;99.90;;;9.17;100.00;96095.22;5004421;28;20470;-76
2024/03/30 06:35:02;;;;;;;11.40;5.60;;;8.50;99.90;;;9.21;100.00;96102.38;5002194;28;20474;-76
2024/03/30 06:37:29;;;;;;;10.43;4.57;;;8.60;99.90;;;9.27;100.00;96101.44;4996186;28;20495;-76
2024/03/30 06:45:27;;;;;;;14.13;5.60;;;8.50;99.90;;;9.18;100.00;96092.38;4997155;28;20505;-76
2024/03/30 06:47:55;;;;;;;11.97;3.93;;;8.60;99.90;;;9.26;100.00;96110.31;5003471;28;20477;-76
2024/03/30 06:50:22;;;;;;;15.20;4.50;;;8.60;99.90;;;9.26;100.00;96110.31;5018913;28;20854;-76
2024/03/30 06:52:50;;;;;;;10.90;4.90;;;8.60;99.90;;;9.27;100.00;96118.91;5004158;28;21058;-76
2024/03/30 06:55:19;;;;;;;10.03;5.07;;;8.60;99.90;;;9.25;100.00;96124.38;5004557;28;20903;-76
2024/03/30 06:57:45;;;;;;;12.43;5.10;;;8.70;99.90;;;9.32;100.00;96103.38;5004590;28;20980;-76
2024/03/30 07:00:13;;;;;;;9.80;5.10;;;8.70;99.90;;;9.39;100.00;96088.41;5017141;28;20464;-76
2024/03/30 07:02:39;;;;;;;21.53;6.17;;;8.70;99.90;;;9.46;100.00;96109.97;5006804;28;20537;-75
2024/03/30 07:05:08;;;;;;;14.57;6.07;;;8.70;99.90;;;9.46;100.00;96105.53;5002921;28;20501;-76
2024/03/30 07:07:34;;;;;;;15.90;5.70;;;8.70;99.90;;;9.41;100.00;96108.03;5003449;28;20493;-76
2024/03/30 07:10:02;;;;;;;15.77;5.60;;;8.70;99.90;;;9.44;100.00;96101.59;5002955;28;20605;-76
2024/03/30 07:12:30;;;;;;;14.50;6.13;;;8.70;99.90;;;9.51;100.00;96103.03;4999633;28;20467;-76
2024/03/30 07:14:57;;;;;;;17.20;6.40;;;8.80;99.90;;;9.56;100.00;96116.19;5019335;28;20479;-76
2024/03/30 07:17:24;;;;;;;16.27;6.20;;;8.80;99.90;;;9.64;100.00;96116.88;5003183;28;20475;-76
2024/03/30 07:19:51;;;;;;;12.20;6.30;;;8.90;99.90;;;9.70;100.00;96115.97;5000578;28;20513;-76
2024/03/30 07:22:17;;;;;;;13.80;6.20;;;8.90;99.90;;;9.76;100.00;96113.22;5002011;28;20467;-76
2024/03/30 07:24:48;;;;;;;15.30;6.17;;;9.00;99.90;;;9.80;100.00;96109.13;5003182;28;20471;-76
2024/03/30 07:27:14;;;;;;;10.40;5.37;;;9.00;99.90;;;9.86;100.00;96104.81;5000352;28;20864;-76
2024/03/30 07:29:43;;;;;;;9.20;5.30;;;9.10;99.90;;;9.92;100.00;96109.13;5003099;28;20476;-76
2024/03/30 07:32:10;;;;;;;18.90;5.93;;;9.10;99.90;;;9.94;100.00;96113.09;5002305;28;20492;-76
2024/03/30 07:34:37;;;;;;;13.10;5.60;;;9.20;99.90;;;9.98;100.00;96109.00;5003901;28;20493;-76
2024/03/30 07:37:03;;;;;;;11.60;5.90;;;9.20;99.90;;;10.03;100.00;96113.53;4996305;28;20472;-77
2024/03/30 07:39:31;;;;;;;11.03;5.50;;;9.20;99.90;;;10.06;100.00;96106.03;5004288;28;20844;-76
2024/03/30 07:41:57;;;;;;;12.73;5.70;;;9.30;99.90;;;10.10;100.00;96106.34;4999774;28;20823;-76
2024/03/30 07:44:27;;;;;;;8.87;5.30;;;9.30;99.90;;;10.11;100.00;96111.34;5004636;28;20484;-76
2024/03/30 07:46:55;;;;;;;9.20;5.67;;;9.40;99.90;;;10.12;100.00;96104.31;5001341;28;20501;-76
2024/03/30 07:49:23;;;;;;;10.10;5.30;;;9.50;99.90;;;10.13;100.00;96106.66;5002215;28;20830;-76
2024/03/30 07:51:49;;;;;;;12.40;6.80;;;9.50;99.90;;;10.17;100.00;96112.25;5017106;28;20471;-76
2024/03/30 07:54:17;;;;;;;15.60;7.77;;;9.50;99.90;;;10.23;100.00;96111.34;5004803;28;20491;-76
2024/03/30 07:56:54;;;;;;;13.57;7.00;;;9.50;99.90;;;10.25;100.00;96118.94;4999396;28;20456;-76
2024/03/30 07:59:22;;;;;;;16.83;7.90;;;9.50;99.90;;;10.27;100.00;96112.47;5004706;28;20477;-76
2024/03/30 08:01:49;;;;;;;12.83;6.43;;;9.50;99.90;;;10.30;100.00;96105.97;5002490;28;20476;-76
2024/03/30 08:04:19;;;;;;;13.67;6.90;;;9.60;99.90;;;10.32;100.00;96116.97;5000950;28;20474;-76
2024/03/30 08:06:48;;;;;;;13.67;7.83;;;9.60;99.90;;;10.34;100.00;96118.34;5001518;28;20495;-76
2024/03/30 08:09:16;;;;;;;14.67;7.30;;;9.60;99.90;;;10.36;100.00;96116.28;5002572;28;20476;-76
2024/03/30 08:11:43;;;;;;;10.50;6.20;;;9.60;99.90;;;10.42;100.00;96122.38;4999764;28;20468;-76
2024/03/30 08:14:12;;;;;;;13.37;7.37;;;9.60;99.90;;;10.44;100.00;96128.19;5004279;28;20826;-76
2024/03/30 08:16:38;;;;;;;13.53;7.23;;;9.60;99.90;;;10.44;100.00;96126.38;5002212;28;20473;-76
2024/03/30 08:19:08;;;;;;;14.37;8.00;;;9.60;99.90;;;10.48;100.00;96129.31;4997286;28;20450;-76
2024/03/30 08:21:35;;;;;;;14.07;7.57;;;9.70;99.90;;;10.50;100.00;96122.81;4999747;28;20810;-76
2024/03/30 08:24:03;;;;;;;15.60;8.27;;;9.80;99.90;;;10.53;100.00;96138.03;5004981;28;20942;-76
2024/03/30 08:26:30;;;;;;;15.37;7.93;;;9.80;99.90;;;10.57;100.00;96136.53;4997457;28;20498;-76
2024/03/30 08:28:59;;;;;;;14.47;7.33;;;9.80;99.90;;;10.60;100.00;96130.84;5020481;28;20473;-76
2024/03/30 08:31:25;;;;;;;11.93;6.37;;;9.90;99.90;;;10.63;100.00;96134.00;5002362;28;20470;-76
2024/03/30 08:33:52;;;;;;;13.70;7.50;;;9.90;99.90;;;10.65;100.00;96143.22;5006791;28;20481;-76
2024/03/30 08:36:19;;;;;;;14.30;7.03;;;10.00;99.90;;;10.68;100.00;96142.75;5001659;28;20470;-76
2024/03/30 08:38:48;;;;;;;13.60;7.03;;;10.00;99.90;;;10.74;100.00;96146.22;5006320;28;21023;-76
2024/03/30 08:41:15;;;;;;;10.83;6.63;;;10.00;99.90;;;10.75;100.00;96147.81;5004410;28;20463;-75
2024/03/30 08:43:42;;;;;;;12.03;6.40;;;10.00;99.90;;;10.80;100.00;96158.34;5008490;28;20472;-76
2024/03/30 08:46:10;;;;;;;12.23;6.80;;;10.00;99.90;;;10.83;100.00;96152.69;5008312;28;20489;-76
2024/03/30 08:48:37;;;;;;;10.03;6.10;;;10.10;99.90;;;10.87;100.00;96148.56;5005860;28;20482;-76
2024/03/30 08:51:04;;;;;;;15.70;6.70;;;10.10;99.90;;;10.88;100.00;96131.84;5006780;28;20496;-76
2024/03/30 08:53:31;;;;;;;15.10;7.70;;;10.10;99.90;;;10.94;100.00;96143.97;5004573;28;20475;-76
2024/03/30 08:56:00;;;;;;;10.90;6.30;;;10.10;99.90;;;10.97;100.00;96140.88;5006804;28;20479;-76
2024/03/30 08:58:29;;;;;;;11.63;6.30;;;10.20;99.90;;;11.03;100.00;96147.81;5003925;28;20545;-75
2024/03/30 09:00:56;;;;;;;11.67;6.70;;;10.20;99.90;;;11.10;100.00;96153.66;5006907;28;20479;-76
2024/03/30 09:03:23;;;;;;;13.10;6.80;;;10.30;99.90;;;11.14;100.00;96154.00;5009512;28;20489;-76
2024/03/30 09:05:50;;;;;;;18.97;7.90;;;10.40;99.90;;;11.14;100.00;96144.31;5005115;28;20496;-76
2024/03/30 09:08:17;;;;;;;11.73;7.30;;;10.50;99.90;;;11.17;100.00;96146.47;5000856;28;20841;-76
2024/03/30 09:10:44;;;;;;;10.63;6.90;;;10.50;99.90;;;11.21;100.00;96146.78;5004859;28;20487;-76
2024/03/30 09:13:12;;;;;;;11.43;7.00;;;10.50;99.90;;;11.25;100.00;96160.94;5001119;28;20935;-76
2024/03/30 09:15:39;;;;;;;11.87;7.10;;;10.50;99.90;;;11.31;100.00;96160.03;5009855;28;21238;-76
2024/03/30 09:18:07;;;;;;;12.10;6.33;;;10.60;99.90;;;11.36;100.00;96168.72;5003558;28;20474;-76
2024/03/30 09:20:33;;;;;;;11.97;6.77;;;10.60;99.90;;;11.42;100.00;96174.84;5001840;28;21278;-77
2024/03/30 09:23:00;;;;;;;14.30;7.73;;;10.60;99.90;;;11.41;100.00;96168.81;5000430;28;20481;-76
2024/03/30 09:25:27;;;;;;;12.40;7.80;;;10.60;99.90;;;11.42;100.00;96174.84;5005440;28;20527;-76
2024/03/30 09:27:54;;;;;;;13.60;6.93;;;10.70;99.90;;;11.48;100.00;96179.94;5006180;28;20829;-75
2024/03/30 09:30:22;;;;;;;18.73;6.47;;;10.70;99.90;;;11.53;100.00;96177.38;5006530;28;20495;-76
2024/03/30 09:32:49;;;;;;;14.40;6.70;;;10.80;99.90;;;11.58;100.00;96179.28;5005478;28;20472;-76
2024/03/30 09:35:16;;;;;;;10.70;6.07;;;10.90;99.90;;;11.59;100.00;96184.25;5017860;28;21181;-76
2024/03/30 09:37:43;;;;;;;13.63;6.67;;;10.90;99.90;;;11.61;100.00;96186.66;5004362;28;21003;-76
2024/03/30 09:40:12;;;;;;;9.33;5.90;;;11.00;99.90;;;11.66;100.00;96193.81;5020267;28;20470;-77
2024/03/30 09:42:40;;;;;;;10.37;6.47;;;11.10;99.90;;;11.63;100.00;96203.69;5017984;28;21041;-76
2024/03/30 09:45:10;;;;;;;14.33;5.60;;;11.10;99.90;;;11.65;100.00;96200.84;5008123;28;20459;-76
2024/03/30 09:47:42;;;;;;;12.53;6.10;;;11.10;99.90;;;11.67;100.00;96205.84;4999391;28;20502;-76
2024/03/30 09:50:10;;;;;;;8.73;5.50;;;11.10;99.90;;;11.68;100.00;96202.19;5005942;28;20468;-76
2024/03/30 09:52:39;;;;;;;10.13;5.73;;;11.00;99.90;;;11.70;100.00;96205.38;4997669;28;20473;-76
2024/03/30 09:55:11;;;;;;;9.40;5.17;;;11.00;99.90;;;11.72;100.00;96198.91;5003172;28;20472;-76
2024/03/30 09:57:42;;;;;;;10.70;5.13;;;11.00;99.90;;;11.75;100.00;96195.81;5016985;28;20487;-76
2024/03/30 10:00:12;;;;;;;11.97;5.60;;;11.10;99.90;;;11.76;100.00;96194.78;5005025;28;20494;-76
2024/03/30 10:02:42;;;;;;;14.47;7.60;;;11.10;99.90;;;11.77;100.00;96187.69;4999329;28;20530;-76
2024/03/30 10:05:09;;;;;;;13.23;6.63;;;11.10;99.90;;;11.79;100.00;96193.50;4998745;28;20497;-77
2024/03/30 10:07:42;;;;;;;12.97;8.33;;;11.10;99.90;;;11.80;100.00;96193.25;5000526;28;20527;-77
2024/03/30 10:10:14;;;;;;;11.50;7.40;;;11.10;99.90;;;11.83;100.00;96203.25;5015693;28;20465;-76
2024/03/30 10:12:53;;;;;;;11.03;7.10;;;11.10;99.90;;;11.83;100.00;96208.50;5007713;28;20535;-77
2024/03/30 10:15:30;;;;;;;15.50;7.90;;;11.10;99.90;;;11.81;100.00;96209.75;5002976;28;20536;-76
2024/03/30 10:17:59;;;;;;;14.43;6.93;;;11.00;99.90;;;11.79;100.00;96209.22;5001680;28;20472;-77
2024/03/30 10:20:26;;;;;;;11.27;6.57;;;11.00;99.90;;;11.77;100.00;96208.63;5005914;28;20469;-77
2024/03/30 10:22:54;;;;;;;13.37;6.83;;;11.00;99.90;;;11.77;100.00;96213.88;5005102;28;20495;-76
2024/03/30 10:25:22;;;;;;;13.50;7.63;;;11.00;99.90;;;11.81;100.00;96213.16;5002967;28;20475;-77